Time;durP1;ratioP1;P1;durP2;ratioP2;P2;SDS_P1;SDS_P2;PMS_P1;PMS_P2;Temp;Humidity;BMP_temperature;BMP_pressure;BME280_temperature;BME280_humidity;BME280_pressure;Samples;Min_cycle;Max_cycle;Signal;HPM_P1;HPM_P2
2022/10/15 00:00:44;;;;;;;88.50;49.25;;;13.10;99.90;;;;;;6177952;23;20101;-74
2022/10/15 00:03:10;;;;;;;101.43;51.03;;;13.00;99.90;;;;;;6179208;23;20345;-73
2022/10/15 00:05:37;;;;;;;93.20;49.47;;;13.00;99.90;;;;;;6148305;23;20013;-73
2022/10/15 00:08:03;;;;;;;95.13;49.35;;;13.00;99.90;;;;;;6179202;23;20025;-73
2022/10/15 00:10:30;;;;;;;90.63;49.67;;;13.00;99.90;;;;;;6179445;23;20044;-73
2022/10/15 00:12:55;;;;;;;97.40;48.63;;;13.00;99.90;;;;;;6177289;23;20028;-73
2022/10/15 00:15:21;;;;;;;97.97;49.28;;;13.10;99.90;;;;;;6176210;23;20642;-73
2022/10/15 00:17:47;;;;;;;98.88;48.83;;;13.00;99.90;;;;;;6179755;23;20032;-73
2022/10/15 00:20:16;;;;;;;100.70;48.53;;;13.00;99.90;;;;;;6177763;23;20016;-72
2022/10/15 00:22:45;;;;;;;103.30;51.30;;;13.00;99.90;;;;;;6178291;23;20020;-71
2022/10/15 00:25:11;;;;;;;105.53;48.97;;;13.10;99.90;;;;;;6150806;23;20573;-71
2022/10/15 00:27:36;;;;;;;108.32;51.00;;;13.10;99.90;;;;;;6151398;23;20045;-71
2022/10/15 00:30:04;;;;;;;96.75;48.25;;;13.10;99.90;;;;;;6173254;23;20147;-71
2022/10/15 00:32:30;;;;;;;111.78;53.08;;;13.10;99.90;;;;;;6173990;23;20662;-72
2022/10/15 00:34:56;;;;;;;109.55;53.42;;;13.10;99.90;;;;;;6179590;23;20488;-70
2022/10/15 00:37:22;;;;;;;119.40;54.20;;;13.10;99.90;;;;;;6177244;23;20021;-71
2022/10/15 00:39:49;;;;;;;112.50;53.17;;;13.10;99.90;;;;;;6151824;23;20390;-70
2022/10/15 00:42:14;;;;;;;111.80;51.47;;;13.10;99.90;;;;;;6177332;23;20108;-71
2022/10/15 00:44:45;;;;;;;118.65;54.75;;;13.10;99.90;;;;;;6178446;23;20044;-71
2022/10/15 00:47:34;;;;;;;121.80;54.40;;;13.10;99.90;;;;;;6175419;23;20032;-71
2022/10/15 00:50:08;;;;;;;117.53;53.03;;;13.20;99.90;;;;;;6152400;23;20041;-71
2022/10/15 00:52:41;;;;;;;112.10;52.88;;;13.10;99.90;;;;;;6152004;23;20013;-72
2022/10/15 00:55:18;;;;;;;;;;;13.10;99.90;;;;;;6177279;23;20021;-73
2022/10/15 00:57:46;;;;;;;118.78;54.17;;;13.10;99.90;;;;;;6178623;23;20075;-72
2022/10/15 01:00:14;;;;;;;125.80;56.97;;;13.10;99.90;;;;;;6177334;23;20025;-72
2022/10/15 01:02:41;;;;;;;124.45;55.03;;;13.10;99.90;;;;;;6151357;23;20041;-73
2022/10/15 01:05:08;;;;;;;137.05;54.83;;;13.10;99.90;;;;;;6177294;23;20031;-73
2022/10/15 01:07:33;;;;;;;117.05;51.70;;;13.00;99.90;;;;;;6148138;23;20028;-73
2022/10/15 01:10:00;;;;;;;113.85;52.83;;;13.00;99.90;;;;;;6178076;23;20029;-73
2022/10/15 01:12:45;;;;;;;120.50;53.42;;;13.00;99.90;;;;;;6177607;23;20021;-74
2022/10/15 01:15:56;;;;;;;114.70;52.88;;;13.00;99.90;;;;;;6145440;23;20044;-73
2022/10/15 01:18:41;;;;;;;125.90;53.38;;;13.00;99.90;;;;;;6032249;23;20113;-73
2022/10/15 01:21:23;;;;;;;113.43;52.63;;;13.00;99.90;;;;;;6056526;23;20030;-73
2022/10/15 01:24:05;;;;;;;109.75;51.22;;;13.00;99.90;;;;;;6122177;23;20021;-73
2022/10/15 01:26:58;;;;;;;114.65;51.00;;;13.00;99.90;;;;;;6175873;23;20365;-72
2022/10/15 01:29:55;;;;;;;104.10;48.90;;;13.00;99.90;;;;;;6153173;23;20025;-73
2022/10/15 01:32:47;;;;;;;102.25;47.88;;;13.00;99.90;;;;;;6178034;23;20035;-73
2022/10/15 01:35:19;;;;;;;97.22;46.60;;;13.00;99.90;;;;;;6180333;23;20334;-73
2022/10/15 01:37:52;;;;;;;86.22;44.00;;;13.00;99.90;;;;;;6179283;23;20025;-72
2022/10/15 01:40:34;;;;;;;93.38;44.92;;;13.00;99.90;;;;;;6179722;23;20456;-73
2022/10/15 01:43:05;;;;;;;93.55;45.13;;;12.90;99.90;;;;;;6179825;23;20025;-72
2022/10/15 01:45:45;;;;;;;88.32;42.70;;;12.90;99.90;;;;;;6151402;23;20096;-72
2022/10/15 01:48:12;;;;;;;89.72;42.08;;;12.90;99.90;;;;;;6152737;23;20025;-72
2022/10/15 01:50:47;;;;;;;82.28;39.25;;;12.80;99.90;;;;;;6176213;23;20036;-73
2022/10/15 01:53:17;;;;;;;77.53;38.47;;;12.80;99.90;;;;;;6176973;23;20027;-72
2022/10/15 01:55:45;;;;;;;72.00;36.45;;;12.80;99.90;;;;;;6153232;23;20067;-72
2022/10/15 01:58:14;;;;;;;62.72;33.28;;;12.80;99.90;;;;;;6178158;23;20017;-72
2022/10/15 02:00:42;;;;;;;67.18;33.70;;;12.80;99.90;;;;;;6152232;23;20095;-72
2022/10/15 02:03:08;;;;;;;64.40;33.25;;;12.80;99.90;;;;;;6179035;23;20092;-72
2022/10/15 02:06:07;;;;;;;61.28;31.35;;;12.80;99.90;;;;;;6152366;23;20021;-72
2022/10/15 02:08:32;;;;;;;62.15;30.90;;;12.80;99.90;;;;;;6178170;23;20025;-73
2022/10/15 02:11:07;;;;;;;61.90;31.58;;;12.80;99.90;;;;;;6179394;23;20029;-72
2022/10/15 02:13:49;;;;;;;57.50;29.63;;;12.80;99.90;;;;;;6176296;23;20084;-73
2022/10/15 02:16:26;;;;;;;59.58;29.70;;;12.80;99.90;;;;;;6163734;23;20025;-72
2022/10/15 02:18:52;;;;;;;56.45;29.02;;;12.80;99.90;;;;;;6178439;23;20276;-72
2022/10/15 02:21:44;;;;;;;65.78;31.45;;;12.80;99.90;;;;;;6152711;23;20223;-72
2022/10/15 02:24:18;;;;;;;70.78;34.35;;;12.80;99.90;;;;;;6151843;23;20040;-73
2022/10/15 02:26:45;;;;;;;67.63;33.80;;;12.80;99.90;;;;;;6150209;23;20414;-73
2022/10/15 02:29:17;;;;;;;74.93;35.50;;;12.80;99.90;;;;;;6173947;23;20025;-73
2022/10/15 02:31:45;;;;;;;76.35;37.20;;;12.80;99.90;;;;;;6173628;23;20021;-72
2022/10/15 02:34:16;;;;;;;87.47;38.92;;;12.80;99.90;;;;;;6150297;23;20025;-73
2022/10/15 02:36:43;;;;;;;94.53;43.20;;;12.80;99.90;;;;;;6179779;23;20024;-73
2022/10/15 02:39:16;;;;;;;90.43;41.00;;;12.70;99.90;;;;;;6179090;23;20084;-73
2022/10/15 02:41:42;;;;;;;94.70;43.88;;;12.80;99.90;;;;;;6179213;23;20045;-73
2022/10/15 02:44:08;;;;;;;101.97;45.80;;;12.80;99.90;;;;;;6152548;23;20032;-72
2022/10/15 02:46:34;;;;;;;99.95;43.97;;;12.80;99.90;;;;;;6176434;23;20017;-73
2022/10/15 02:48:59;;;;;;;99.60;44.78;;;12.70;99.90;;;;;;6153132;23;20029;-73
2022/10/15 02:51:25;;;;;;;103.50;46.38;;;12.80;99.90;;;;;;6177198;23;20017;-73
2022/10/15 02:53:51;;;;;;;94.85;45.22;;;12.80;99.90;;;;;;6178320;23;20383;-72
2022/10/15 02:56:17;;;;;;;106.97;45.67;;;12.70;99.90;;;;;;6177927;23;20076;-73
2022/10/15 02:58:42;;;;;;;108.43;46.22;;;12.80;99.90;;;;;;6179647;23;20032;-73
2022/10/15 03:01:08;;;;;;;109.30;47.10;;;12.80;99.90;;;;;;6155911;23;20017;-74
2022/10/15 03:03:34;;;;;;;106.53;46.50;;;12.80;99.90;;;;;;6158109;23;20021;-73
2022/10/15 03:05:59;;;;;;;98.18;44.85;;;12.80;99.90;;;;;;6199196;23;20038;-73
2022/10/15 03:08:25;;;;;;;110.28;50.00;;;12.80;99.90;;;;;;6197806;23;20025;-74
2022/10/15 03:10:51;;;;;;;104.60;47.00;;;12.80;99.90;;;;;;6174170;23;20017;-74
2022/10/15 03:13:17;;;;;;;113.28;48.13;;;12.80;99.90;;;;;;6181430;23;20531;-75
2022/10/15 03:15:42;;;;;;;108.03;46.95;;;12.80;99.90;;;;;;6177172;23;20028;-73
2022/10/15 03:18:08;;;;;;;98.72;45.90;;;12.70;99.90;;;;;;6179167;23;20472;-74
2022/10/15 03:20:34;;;;;;;97.15;46.65;;;12.70;99.90;;;;;;6151835;23;20040;-74
2022/10/15 03:23:00;;;;;;;108.22;47.80;;;12.80;99.90;;;;;;6151367;23;20480;-74
2022/10/15 03:25:25;;;;;;;109.53;48.58;;;12.70;99.90;;;;;;6163819;23;20028;-73
2022/10/15 03:27:55;;;;;;;99.40;45.22;;;12.70;99.90;;;;;;6177996;23;20052;-73
2022/10/15 03:30:20;;;;;;;116.35;49.22;;;12.70;99.90;;;;;;6176268;23;20531;-74
2022/10/15 03:32:46;;;;;;;103.07;46.05;;;12.70;99.90;;;;;;6152213;23;20261;-75
2022/10/15 03:35:15;;;;;;;96.85;44.42;;;12.70;99.90;;;;;;6176682;23;20491;-72
2022/10/15 03:37:40;;;;;;;106.30;47.17;;;12.70;99.90;;;;;;6178773;23;20028;-73
2022/10/15 03:40:07;;;;;;;96.88;44.45;;;12.70;99.90;;;;;;6152189;23;20022;-73
2022/10/15 03:42:32;;;;;;;107.70;45.25;;;12.70;99.90;;;;;;6178158;23;20116;-73
2022/10/15 03:44:58;;;;;;;109.53;46.70;;;12.60;99.90;;;;;;6152217;23;20040;-72
2022/10/15 03:47:24;;;;;;;98.85;44.78;;;12.70;99.90;;;;;;6151290;23;20357;-73
2022/10/15 03:49:49;;;;;;;112.68;46.42;;;12.70;99.90;;;;;;6178536;23;20029;-73
2022/10/15 03:52:15;;;;;;;110.50;46.90;;;12.60;99.90;;;;;;6177427;23;20401;-73
2022/10/15 03:54:41;;;;;;;96.35;45.45;;;12.70;99.90;;;;;;6178938;23;20041;-72
2022/10/15 03:57:07;;;;;;;109.55;46.38;;;12.70;99.90;;;;;;6150144;23;20013;-72
2022/10/15 03:59:32;;;;;;;119.20;49.60;;;12.70;99.90;;;;;;6176822;23;20141;-72
2022/10/15 04:01:58;;;;;;;112.20;47.22;;;12.70;99.90;;;;;;6177280;23;20024;-72
2022/10/15 04:04:24;;;;;;;120.10;48.13;;;12.70;99.90;;;;;;6150460;23;20021;-72
2022/10/15 04:06:50;;;;;;;113.85;48.80;;;12.70;99.90;;;;;;6152226;23;20103;-73
2022/10/15 04:09:15;;;;;;;124.32;48.42;;;12.70;99.90;;;;;;6179090;23;20097;-73
2022/10/15 04:11:41;;;;;;;116.80;49.63;;;12.70;99.90;;;;;;6178036;23;20474;-73
2022/10/15 04:14:07;;;;;;;134.50;52.60;;;12.70;99.90;;;;;;6176887;23;20031;-73
2022/10/15 04:16:33;;;;;;;119.20;49.00;;;12.70;99.90;;;;;;6176167;23;20096;-73
2022/10/15 04:18:58;;;;;;;132.57;51.90;;;12.70;99.90;;;;;;6149166;23;20029;-73
2022/10/15 04:21:25;;;;;;;144.10;53.33;;;12.70;99.90;;;;;;6150707;23;20023;-73
2022/10/15 04:23:50;;;;;;;120.13;49.17;;;12.70;99.90;;;;;;6174651;23;20045;-73
2022/10/15 04:26:16;;;;;;;114.95;47.97;;;12.70;99.90;;;;;;6150682;23;20028;-73
2022/10/15 04:28:46;;;;;;;120.38;50.53;;;12.70;99.90;;;;;;6177919;23;20465;-73
2022/10/15 04:31:14;;;;;;;127.18;50.45;;;12.70;99.90;;;;;;6176499;23;20087;-72
2022/10/15 04:33:40;;;;;;;111.78;49.75;;;12.70;99.90;;;;;;6165287;23;20476;-73
2022/10/15 04:36:09;;;;;;;128.32;50.80;;;12.70;99.90;;;;;;6176003;23;20036;-73
2022/10/15 04:38:35;;;;;;;112.97;47.72;;;12.70;99.90;;;;;;6178236;23;20499;-72
2022/10/15 04:41:06;;;;;;;125.28;51.17;;;12.70;99.90;;;;;;6177341;23;20021;-73
2022/10/15 04:43:32;;;;;;;130.93;53.20;;;12.70;99.90;;;;;;6151333;23;20457;-73
2022/10/15 04:45:59;;;;;;;146.73;53.70;;;12.60;99.90;;;;;;6176465;23;20031;-73
2022/10/15 04:48:28;;;;;;;130.82;53.63;;;12.70;99.90;;;;;;6177713;23;20044;-73
2022/10/15 04:50:53;;;;;;;150.75;56.03;;;12.70;99.90;;;;;;6174719;23;20025;-72
2022/10/15 04:53:20;;;;;;;143.25;55.08;;;12.70;99.90;;;;;;6176228;23;20078;-72
2022/10/15 04:55:46;;;;;;;131.40;53.83;;;12.70;99.90;;;;;;6151089;23;20299;-72
2022/10/15 04:58:12;;;;;;;162.32;60.00;;;12.70;99.90;;;;;;6150695;23;20500;-73
2022/10/15 05:00:38;;;;;;;143.25;56.08;;;12.80;99.90;;;;;;6176991;23;20095;-73
2022/10/15 05:03:05;;;;;;;146.93;57.67;;;12.70;99.90;;;;;;6151405;23;20032;-73
2022/10/15 05:05:39;;;;;;;140.80;57.90;;;12.70;99.90;;;;;;6177507;23;20102;-73
2022/10/15 05:08:05;;;;;;;128.68;54.55;;;12.70;99.90;;;;;;6177994;23;20040;-72
2022/10/15 05:10:31;;;;;;;145.32;57.65;;;12.70;99.90;;;;;;6177967;23;20613;-73
2022/10/15 05:12:57;;;;;;;125.93;53.60;;;12.70;99.90;;;;;;6177726;23;20028;-73
2022/10/15 05:15:26;;;;;;;131.98;55.58;;;12.70;99.90;;;;;;6148002;23;20121;-72
2022/10/15 05:17:51;;;;;;;152.95;57.42;;;12.70;99.90;;;;;;6180203;23;20237;-73
2022/10/15 05:20:17;;;;;;;143.27;55.88;;;12.70;99.90;;;;;;6177853;23;20177;-73
2022/10/15 05:22:43;;;;;;;125.55;52.50;;;12.70;99.90;;;;;;6177537;23;20020;-75
2022/10/15 05:25:09;;;;;;;125.28;53.65;;;12.70;99.90;;;;;;6181511;23;20378;-72
2022/10/15 05:27:34;;;;;;;147.23;58.40;;;12.70;99.90;;;;;;6180720;23;20154;-79
2022/10/15 05:30:00;;;;;;;133.43;54.80;;;12.60;99.90;;;;;;6176920;23;20048;-78
2022/10/15 05:32:26;;;;;;;135.05;55.58;;;12.70;99.90;;;;;;6153158;23;20017;-78
2022/10/15 05:34:52;;;;;;;149.52;58.38;;;12.70;99.90;;;;;;6179738;23;20024;-77
2022/10/15 05:37:18;;;;;;;137.80;56.40;;;12.70;99.90;;;;;;6151893;23;20014;-77
2022/10/15 05:39:43;;;;;;;134.60;55.85;;;12.60;99.90;;;;;;6154128;23;20092;-78
2022/10/15 05:42:09;;;;;;;153.35;59.22;;;12.60;99.90;;;;;;6182194;23;20021;-77
2022/10/15 05:44:35;;;;;;;146.90;57.75;;;12.60;99.90;;;;;;6156410;23;20025;-77
2022/10/15 05:47:01;;;;;;;153.95;57.60;;;12.60;99.90;;;;;;6155030;23;20085;-77
2022/10/15 05:49:26;;;;;;;157.00;59.13;;;12.60;99.90;;;;;;6154290;23;20095;-78
2022/10/15 05:51:52;;;;;;;142.60;56.67;;;12.50;99.90;;;;;;6179820;23;20091;-77
2022/10/15 05:54:18;;;;;;;144.25;58.53;;;12.60;99.90;;;;;;6153184;23;20095;-77
2022/10/15 05:56:44;;;;;;;145.52;62.60;;;12.50;99.90;;;;;;6182044;23;20108;-77
2022/10/15 05:59:10;;;;;;;146.77;60.10;;;12.50;99.90;;;;;;6156829;23;20113;-76
2022/10/15 06:01:36;;;;;;;163.88;62.58;;;12.50;99.90;;;;;;6182521;23;20437;-78
2022/10/15 06:04:02;;;;;;;159.40;62.22;;;12.50;99.90;;;;;;6191155;23;20226;-76
2022/10/15 06:06:28;;;;;;;154.68;61.22;;;12.50;99.90;;;;;;6165397;23;20028;-77
2022/10/15 06:08:54;;;;;;;161.48;60.88;;;12.50;99.90;;;;;;6191746;23;20049;-77
2022/10/15 06:11:20;;;;;;;160.80;61.60;;;12.50;99.90;;;;;;6181770;23;20028;-77
2022/10/15 06:13:46;;;;;;;146.70;56.33;;;12.50;99.90;;;;;;6140226;23;20021;-77
2022/10/15 06:16:14;;;;;;;148.00;57.88;;;12.50;99.90;;;;;;6153871;23;20028;-78
2022/10/15 06:18:40;;;;;;;131.75;56.42;;;12.50;99.90;;;;;;6155208;23;20021;-76
2022/10/15 06:21:06;;;;;;;145.70;58.72;;;12.50;99.90;;;;;;6154422;23;20025;-77
2022/10/15 06:23:35;;;;;;;135.98;55.45;;;12.50;99.90;;;;;;6181182;23;20037;-77
2022/10/15 06:26:03;;;;;;;136.35;59.03;;;12.50;99.90;;;;;;6182226;23;20401;-78
2022/10/15 06:28:29;;;;;;;139.57;56.72;;;12.40;99.90;;;;;;6162173;23;20049;-77
2022/10/15 06:30:58;;;;;;;139.63;60.00;;;12.50;99.90;;;;;;6180865;23;20060;-76
2022/10/15 06:33:24;;;;;;;141.32;57.08;;;12.40;99.90;;;;;;6152239;23;20428;-78
2022/10/15 06:35:50;;;;;;;142.95;56.72;;;12.50;99.90;;;;;;6179823;23;20456;-77
2022/10/15 06:38:16;;;;;;;124.78;55.25;;;12.40;99.90;;;;;;6153853;23;20349;-78
2022/10/15 06:40:49;;;;;;;142.55;59.17;;;12.40;99.90;;;;;;6153525;23;20040;-77
2022/10/15 06:43:15;;;;;;;;;;;12.40;99.90;;;;;;6154181;23;20096;-78
2022/10/15 06:45:41;;;;;;;125.97;53.58;;;12.40;99.90;;;;;;6177302;23;20353;-75
2022/10/15 06:48:07;;;;;;;136.70;56.38;;;12.30;99.90;;;;;;6153976;23;20021;-77
2022/10/15 06:50:35;;;;;;;142.45;60.10;;;12.30;99.90;;;;;;6152877;23;20021;-78
2022/10/15 06:53:01;;;;;;;125.65;55.03;;;12.30;99.90;;;;;;6177374;23;20059;-77
2022/10/15 06:55:30;;;;;;;130.30;57.20;;;12.30;99.90;;;;;;6153220;23;20021;-78
2022/10/15 06:57:56;;;;;;;133.73;59.55;;;12.40;99.90;;;;;;6181228;23;20376;-77
2022/10/15 07:00:23;;;;;;;141.82;58.08;;;12.30;99.90;;;;;;6177633;23;20095;-76
2022/10/15 07:02:49;;;;;;;134.27;59.17;;;12.40;99.90;;;;;;6152237;23;20484;-77
2022/10/15 07:05:16;;;;;;;135.48;60.05;;;12.40;99.90;;;;;;6148844;23;20043;-77
2022/10/15 07:07:42;;;;;;;142.27;63.78;;;12.50;99.90;;;;;;6150983;23;20029;-77
2022/10/15 07:10:08;;;;;;;139.02;59.17;;;12.50;99.90;;;;;;6149674;23;20554;-77
2022/10/15 07:12:34;;;;;;;142.38;61.13;;;12.70;99.90;;;;;;6136536;23;20024;-77
2022/10/15 07:15:00;;;;;;;147.77;61.13;;;12.70;99.90;;;;;;6150134;23;20025;-77
2022/10/15 07:17:27;;;;;;;152.18;64.28;;;12.80;99.90;;;;;;6126942;23;20017;-76
2022/10/15 07:19:53;;;;;;;138.18;60.53;;;12.80;99.90;;;;;;6177725;23;20461;-77
2022/10/15 07:22:19;;;;;;;128.73;57.97;;;12.90;99.90;;;;;;6176515;23;20024;-77
2022/10/15 07:24:44;;;;;;;138.73;60.25;;;13.00;99.90;;;;;;6178051;23;20025;-77
2022/10/15 07:27:10;;;;;;;145.98;61.58;;;13.00;99.90;;;;;;6151675;23;20071;-76
2022/10/15 07:29:36;;;;;;;138.20;60.15;;;13.00;99.90;;;;;;6161952;23;20025;-76
2022/10/15 07:32:02;;;;;;;124.28;58.25;;;13.00;99.90;;;;;;6173039;23;20049;-77
2022/10/15 07:34:28;;;;;;;127.35;58.20;;;13.00;99.90;;;;;;6151463;23;20418;-77
2022/10/15 07:36:54;;;;;;;140.13;58.30;;;13.00;99.90;;;;;;6153884;23;20049;-77
2022/10/15 07:39:19;;;;;;;142.32;59.50;;;13.00;99.90;;;;;;6154696;23;20040;-78
2022/10/15 07:41:45;;;;;;;133.55;57.20;;;13.00;99.90;;;;;;6154288;23;20044;-77
2022/10/15 07:44:11;;;;;;;136.90;58.88;;;13.00;99.90;;;;;;6152423;23;20021;-77
2022/10/15 07:46:37;;;;;;;137.27;57.97;;;13.00;99.90;;;;;;6178198;23;20070;-77
2022/10/15 07:49:03;;;;;;;145.57;57.70;;;13.00;99.90;;;;;;6150256;23;20079;-77
2022/10/15 07:51:28;;;;;;;145.32;55.28;;;13.10;99.90;;;;;;6152130;23;20021;-76
2022/10/15 07:53:55;;;;;;;127.15;50.90;;;13.00;99.90;;;;;;6152746;23;20017;-77
2022/10/15 07:56:20;;;;;;;110.55;42.13;;;13.00;99.90;;;;;;6177214;23;20365;-77
2022/10/15 07:58:50;;;;;;;96.57;35.80;;;13.10;99.90;;;;;;6153167;23;20021;-77
2022/10/15 08:01:17;;;;;;;114.13;39.25;;;13.10;99.90;;;;;;6150195;23;20033;-77
2022/10/15 08:03:43;;;;;;;120.47;41.85;;;13.10;99.90;;;;;;6178665;23;20039;-77
2022/10/15 08:06:09;;;;;;;109.22;39.67;;;13.10;99.90;;;;;;6151229;23;20100;-77
2022/10/15 08:08:36;;;;;;;118.47;40.25;;;13.20;99.90;;;;;;6152258;23;20048;-77
2022/10/15 08:11:08;;;;;;;106.97;39.35;;;13.20;99.90;;;;;;6148843;23;20108;-77
2022/10/15 08:13:34;;;;;;;113.63;41.80;;;13.20;99.90;;;;;;6139285;23;20059;-78
2022/10/15 08:15:59;;;;;;;110.53;40.95;;;13.20;99.90;;;;;;6122608;23;20108;-78
2022/10/15 08:18:26;;;;;;;108.07;42.53;;;13.20;99.90;;;;;;6177203;23;20107;-77
2022/10/15 08:20:52;;;;;;;102.28;43.05;;;13.30;99.90;;;;;;6152358;23;20115;-77
2022/10/15 08:23:17;;;;;;;121.00;48.05;;;13.30;99.90;;;;;;6151716;23;20445;-78
2022/10/15 08:25:43;;;;;;;122.93;50.05;;;13.20;99.90;;;;;;6150879;23;20485;-77
2022/10/15 08:28:09;;;;;;;117.78;47.15;;;13.30;99.90;;;;;;6176458;23;20441;-77
2022/10/15 08:30:36;;;;;;;114.55;46.60;;;13.30;99.90;;;;;;6149487;23;20025;-77
2022/10/15 08:33:02;;;;;;;98.43;43.83;;;13.30;99.90;;;;;;6149529;23;20621;-77
2022/10/15 08:35:28;;;;;;;110.28;47.83;;;13.30;99.90;;;;;;6148904;23;20111;-76
2022/10/15 08:37:54;;;;;;;102.40;45.83;;;13.40;99.90;;;;;;6151616;23;20087;-77
2022/10/15 08:40:21;;;;;;;91.97;44.13;;;13.30;99.90;;;;;;6176816;23;20043;-77
2022/10/15 08:42:49;;;;;;;84.97;39.47;;;13.40;99.90;;;;;;6151913;23;20414;-77
2022/10/15 08:45:20;;;;;;;86.85;38.55;;;13.40;99.90;;;;;;6148312;23;20487;-77
2022/10/15 08:48:10;;;;;;;79.22;38.38;;;13.40;99.90;;;;;;6176435;23;20017;-81
2022/10/15 08:50:49;;;;;;;80.78;37.20;;;13.40;99.90;;;;;;6176161;23;20021;-78
2022/10/15 08:53:19;;;;;;;84.15;38.58;;;13.40;99.90;;;;;;6147015;23;20024;-78
2022/10/15 08:55:49;;;;;;;75.30;39.55;;;13.40;99.90;;;;;;6149842;23;20025;-78
2022/10/15 08:58:39;;;;;;;80.10;42.13;;;13.40;99.90;;;;;;6176711;23;20270;-78
2022/10/15 09:01:23;;;;;;;65.95;36.50;;;13.40;99.90;;;;;;6175089;23;20040;-77
2022/10/15 09:03:51;;;;;;;68.95;37.97;;;13.50;99.90;;;;;;6185148;23;20061;-77
2022/10/15 09:06:24;;;;;;;71.97;39.47;;;13.60;99.90;;;;;;6186663;23;20013;-76
2022/10/15 09:09:24;;;;;;;71.75;38.38;;;13.60;99.90;;;;;;6175187;23;20095;-77
2022/10/15 09:12:03;;;;;;;64.53;37.38;;;13.70;99.90;;;;;;6162164;23;20488;-76
2022/10/15 09:14:33;;;;;;;72.80;39.95;;;13.70;99.90;;;;;;6149361;23;20059;-76
2022/10/15 09:17:04;;;;;;;68.55;39.95;;;13.80;99.90;;;;;;6149967;23;20028;-76
2022/10/15 09:19:31;;;;;;;76.05;39.00;;;13.80;99.90;;;;;;6176847;23;20218;-77
2022/10/15 09:22:01;;;;;;;68.90;38.13;;;13.80;99.90;;;;;;6149087;23;20029;-76
2022/10/15 09:24:28;;;;;;;73.80;40.40;;;13.80;99.90;;;;;;6177190;23;20638;-78
2022/10/15 09:27:22;;;;;;;68.05;39.72;;;13.80;99.90;;;;;;6178239;23;20469;-77
2022/10/15 09:29:56;;;;;;;70.55;39.47;;;13.80;99.90;;;;;;6172763;23;20029;-77
2022/10/15 09:32:49;;;;;;;67.00;39.33;;;13.80;99.90;;;;;;6150207;23;20417;-77
2022/10/15 09:35:17;;;;;;;68.88;38.17;;;13.90;99.90;;;;;;6136554;23;20021;-78
2022/10/15 09:38:02;;;;;;;69.35;39.65;;;13.90;99.90;;;;;;6151026;23;20144;-77
2022/10/15 09:40:42;;;;;;;65.50;37.65;;;13.80;99.90;;;;;;6176108;23;20072;-77
2022/10/15 09:43:10;;;;;;;66.90;34.63;;;13.80;99.90;;;;;;6176418;23;20331;-76
2022/10/15 09:45:36;;;;;;;62.60;31.88;;;13.80;99.90;;;;;;6149623;23;20121;-77
2022/10/15 09:48:19;;;;;;;60.30;31.50;;;13.80;99.90;;;;;;6148799;23;20116;-77
2022/10/15 09:51:01;;;;;;;61.05;32.40;;;13.70;99.90;;;;;;6173466;23;20017;-78
2022/10/15 09:54:03;;;;;;;58.42;32.28;;;13.70;99.90;;;;;;6150532;23;20027;-77
2022/10/15 09:56:36;;;;;;;54.35;28.35;;;13.70;99.90;;;;;;6172159;23;20017;-78
2022/10/15 09:59:02;;;;;;;55.47;28.13;;;13.70;99.90;;;;;;6177767;23;20024;-77
2022/10/15 10:01:32;;;;;;;55.30;30.00;;;13.70;99.90;;;;;;6178228;23;20021;-77
2022/10/15 10:04:19;;;;;;;53.08;28.35;;;13.80;99.90;;;;;;6179092;23;20045;-77
2022/10/15 10:06:51;;;;;;;50.67;27.05;;;13.80;99.90;;;;;;6153151;23;20096;-77
2022/10/15 10:09:20;;;;;;;51.65;25.13;;;13.80;99.90;;;;;;6178306;23;20054;-77
2022/10/15 10:11:50;;;;;;;51.40;25.50;;;13.80;99.90;;;;;;6152654;23;20032;-77
2022/10/15 10:14:46;;;;;;;48.50;24.55;;;13.90;99.90;;;;;;6151052;23;20037;-77
2022/10/15 10:17:21;;;;;;;47.50;25.05;;;14.00;99.90;;;;;;6161805;23;20020;-77
2022/10/15 10:20:07;;;;;;;50.30;25.95;;;14.00;99.90;;;;;;6180001;23;20381;-77
2022/10/15 10:22:48;;;;;;;46.58;25.67;;;14.10;99.90;;;;;;6177191;23;20395;-77
2022/10/15 10:25:25;;;;;;;45.63;24.52;;;14.00;99.90;;;;;;6173001;23;20025;-77
2022/10/15 10:27:53;;;;;;;52.70;25.83;;;14.00;99.90;;;;;;6177467;23;20027;-76
2022/10/15 10:30:19;;;;;;;48.38;24.23;;;14.10;99.90;;;;;;6149092;23;20397;-77
2022/10/15 10:32:46;;;;;;;45.30;24.90;;;14.10;99.90;;;;;;6177386;23;20091;-77
2022/10/15 10:35:43;;;;;;;40.55;22.70;;;14.10;99.90;;;;;;6151151;23;20013;-77
2022/10/15 10:38:34;;;;;;;39.90;22.30;;;14.20;99.90;;;;;;6145212;23;20021;-77
2022/10/15 10:41:05;;;;;;;38.25;22.60;;;14.20;99.90;;;;;;6187166;23;20036;-76
2022/10/15 10:43:32;;;;;;;42.72;23.83;;;14.20;99.90;;;;;;6196166;23;20041;-77
2022/10/15 10:45:59;;;;;;;40.17;22.67;;;14.20;99.90;;;;;;6152895;23;20024;-76
2022/10/15 10:48:40;;;;;;;43.13;24.55;;;14.30;99.90;;;;;;6179004;23;20024;-77
2022/10/15 10:51:18;;;;;;;35.75;21.42;;;14.30;99.90;;;;;;6178354;23;20021;-76
2022/10/15 10:54:13;;;;;;;33.58;21.25;;;14.30;99.90;;;;;;6153247;23;20029;-78
2022/10/15 10:56:43;;;;;;;33.58;19.60;;;14.30;99.90;;;;;;6174359;23;20117;-76
2022/10/15 10:59:31;;;;;;;35.42;20.27;;;14.40;99.90;;;;;;6149451;23;20032;-77
2022/10/15 11:01:56;;;;;;;33.25;20.60;;;14.60;99.90;;;;;;6151898;23;20075;-77
2022/10/15 11:04:32;;;;;;;29.13;18.95;;;14.70;99.90;;;;;;6178271;23;20088;-78
2022/10/15 11:07:00;;;;;;;29.40;18.75;;;14.80;99.90;;;;;;6150644;23;20304;-77
2022/10/15 11:09:43;;;;;;;29.60;18.90;;;14.80;99.90;;;;;;6179002;23;20044;-77
2022/10/15 11:12:42;;;;;;;28.35;17.85;;;15.00;99.90;;;;;;6176075;23;20033;-78
2022/10/15 11:15:11;;;;;;;30.90;18.25;;;15.00;99.90;;;;;;6147784;23;20029;-77
2022/10/15 11:17:45;;;;;;;29.08;18.23;;;15.10;99.90;;;;;;6152081;23;20024;-77
2022/10/15 11:20:38;;;;;;;28.10;17.65;;;15.10;99.90;;;;;;6148621;23;20028;-77
2022/10/15 11:23:32;;;;;;;24.05;16.60;;;15.10;99.90;;;;;;6175351;23;20353;-77
2022/10/15 11:26:22;;;;;;;23.55;16.00;;;15.30;99.90;;;;;;6150848;23;20041;-76
2022/10/15 11:29:19;;;;;;;23.50;16.00;;;15.40;99.90;;;;;;6151900;23;20067;-77
2022/10/15 11:32:03;;;;;;;21.23;14.68;;;15.50;99.90;;;;;;6151400;23;20091;-77
2022/10/15 11:34:54;;;;;;;20.25;14.75;;;15.50;99.90;;;;;;6178197;23;20021;-77
2022/10/15 11:37:53;;;;;;;20.67;14.88;;;15.50;99.90;;;;;;6148989;23;20223;-76
2022/10/15 11:40:35;;;;;;;20.05;14.35;;;15.60;99.90;;;;;;6176472;23;20377;-76
2022/10/15 11:43:07;;;;;;;20.65;14.15;;;15.60;99.90;;;;;;6150917;23;20021;-77
2022/10/15 11:45:54;;;;;;;19.73;13.93;;;15.50;99.90;;;;;;6178622;23;20399;-77
2022/10/15 11:48:54;;;;;;;17.83;13.68;;;15.60;99.90;;;;;;6151136;23;20076;-76
2022/10/15 11:51:36;;;;;;;20.88;14.35;;;15.50;99.90;;;;;;6176732;23;20028;-76
2022/10/15 11:54:05;;;;;;;19.63;13.93;;;15.60;99.90;;;;;;6150863;23;20021;-77
2022/10/15 11:56:35;;;;;;;22.52;14.32;;;15.60;99.90;;;;;;6152575;23;20020;-77
2022/10/15 11:59:16;;;;;;;19.15;13.75;;;15.70;99.90;;;;;;6178400;23;20079;-77
2022/10/15 12:01:56;;;;;;;18.50;13.82;;;15.70;99.90;;;;;;6151110;23;20441;-75
2022/10/15 12:04:32;;;;;;;18.30;14.27;;;15.80;99.90;;;;;;6178000;23;20051;-76
2022/10/15 12:07:00;;;;;;;26.20;15.35;;;15.80;99.90;;;;;;6152490;23;20056;-76
2022/10/15 12:09:32;;;;;;;17.83;12.77;;;15.80;99.90;;;;;;6184736;23;20025;-77
2022/10/15 12:12:09;;;;;;;18.13;13.35;;;15.70;99.90;;;;;;6153054;23;20611;-77
2022/10/15 12:14:35;;;;;;;18.83;13.23;;;15.70;99.90;;;;;;6181757;23;20531;-76
2022/10/15 12:17:21;;;;;;;17.85;13.57;;;15.80;99.90;;;;;;6147774;23;20052;-76
2022/10/15 12:19:53;;;;;;;17.27;12.60;;;15.80;99.90;;;;;;6177590;23;20083;-77
2022/10/15 12:22:51;;;;;;;19.42;13.75;;;15.80;99.90;;;;;;6177265;23;20032;-77
2022/10/15 12:25:34;;;;;;;18.42;13.48;;;15.80;99.90;;;;;;6151237;23;20036;-77
2022/10/15 12:28:07;;;;;;;17.23;13.18;;;15.80;99.90;;;;;;6122931;23;20025;-75
2022/10/15 12:30:35;;;;;;;;;;;15.80;99.90;;;;;;6174029;23;20028;-76
2022/10/15 12:33:03;;;;;;;19.23;14.13;;;15.70;99.90;;;;;;6125402;23;19923;-75
2022/10/15 12:35:38;;;;;;;17.52;13.27;;;15.80;99.90;;;;;;6177779;23;20472;-76
2022/10/15 12:38:21;;;;;;;19.08;14.38;;;15.70;99.90;;;;;;6126475;23;20017;-77
2022/10/15 12:41:02;;;;;;;20.40;15.30;;;15.60;99.90;;;;;;6179519;23;20850;-76
2022/10/15 12:43:29;;;;;;;21.33;15.77;;;15.50;99.90;;;;;;6150941;23;20024;-76